Carnival Victory — 3FFL8 — position and weather

sailwx.info

Track history (hours):
 
Tides and Currents Weather Stations Pressure Air Temp Water Temp Dewpoint Dewpoint Depression Visibility Wind Speed Wind Dir Waves Ship Positions

Carnival Victory

Operator: Carnival Cruise Lines

Last reported at 2017-Feb-24 07:33 UTC. Time now 2017-Feb-24 08:21 UTC.
Position N 25°08' W 079°59'.

Type: Ship. MMSI: 355263000.

Date/timePositionNaut miles runAvg speedWind from/ knotsBaromVisibWave heightAir tempDewpointWater temp
2017-Feb-24 07:33N 25°08' W 079°59'7115.6
2017-Feb-24 03:00N 24°12' W 080°48'6315.6 290 / 351006.910.8 23.018.527.0
2017-Feb-23 23:00N 23°42' W 081°48'18817.1 340 / 251005.510.8 23.018.527.0
2017-Feb-23 12:00N 22°24' W 084°54'14818.9 310 / 281007.010.8 23.020.127.4
2017-Feb-23 04:09N 20°43' W 086°51'1119.4
2017-Feb-23 03:34N 20°34' W 086°58'5 5.0
2017-Feb-23 02:28N 20°29' W 086°59'0 0.0
2017-Feb-23 01:31N 20°29' W 086°59'0 0.0
2017-Feb-23 00:31N 20°29' W 086°59'0 0.0
2017-Feb-22 23:31N 20°29' W 086°59'0 0.0
2017-Feb-22 22:28N 20°29' W 086°59'0 0.0
2017-Feb-22 21:31N 20°29' W 086°59'0 0.0
2017-Feb-22 20:25N 20°29' W 086°59'0 0.0
2017-Feb-22 19:31N 20°29' W 086°59'0 0.0
2017-Feb-22 18:32N 20°29' W 086°59'0 0.0
2017-Feb-22 17:31N 20°29' W 086°59'1 0.6
2017-Feb-22 16:34N 20°29' W 086°59'7015.3
2017-Feb-22 12:00N 21°12' W 086°00'40812.4 130 / 321008.810.8 24.021.127.7
2017-Feb-21 03:11N 25°08' W 079°58'914.9
2017-Feb-21 02:33N 25°18' W 079°56'1515.2
2017-Feb-21 01:33N 25°33' W 079°54'1212.3
2017-Feb-21 00:33N 25°44' W 079°60'9 9.4
2017-Feb-20 23:33N 25°47' W 080°10'0 0.3
2017-Feb-20 22:31N 25°47' W 080°10'0 0.0
2017-Feb-20 21:32N 25°47' W 080°10'0 0.0
2017-Feb-20 20:31N 25°47' W 080°10'0 0.0
2017-Feb-20 19:25N 25°47' W 080°10'0 0.0
2017-Feb-20 18:28N 25°47' W 080°10'0 0.0
2017-Feb-20 17:31N 25°47' W 080°10'0 0.0
2017-Feb-20 16:28N 25°47' W 080°10'0 0.0
2017-Feb-20 15:28N 25°47' W 080°10'0 0.0
2017-Feb-20 14:31N 25°47' W 080°10'0 0.0
2017-Feb-20 13:31N 25°47' W 080°10'0 0.0
2017-Feb-20 12:31N 25°47' W 080°10'0 0.0
2017-Feb-20 11:31N 25°47' W 080°10'0 0.5
2017-Feb-20 10:33N 25°46' W 080°10'9 9.4
2017-Feb-20 09:33N 25°48' W 079°59'8 7.9
2017-Feb-20 08:33N 25°53' W 079°52'7 7.3
2017-Feb-20 07:33N 25°57' W 079°45'8 7.8
2017-Feb-20 06:33N 26°01' W 079°38'8 7.7
2017-Feb-20 05:33N 26°05' W 079°31'8 7.8
2017-Feb-20 04:33N 26°09' W 079°23'8 8.1
2017-Feb-20 03:33N 26°13' W 079°16'4 0.1
2017-Feb-18 04:28N 26°11' W 079°18'1314.4
2017-Feb-18 03:33N 26°05' W 079°31'1414.0
2017-Feb-18 02:33N 25°57' W 079°44'1414.3
2017-Feb-18 01:33N 25°49' W 079°57'1110.7
2017-Feb-18 00:33N 25°46' W 080°09'1 1.3
2017-Feb-17 23:32N 25°47' W 080°10'0 0.0
2017-Feb-17 22:32N 25°47' W 080°10'0 0.0
2017-Feb-17 21:32N 25°47' W 080°10'0 0.0
2017-Feb-17 20:32N 25°47' W 080°10'0 0.0
2017-Feb-17 19:32N 25°47' W 080°10'0 0.0
2017-Feb-17 18:26N 25°47' W 080°10'0 0.0
2017-Feb-17 17:29N 25°47' W 080°10'0 0.0
2017-Feb-17 16:29N 25°47' W 080°10'0 0.0
2017-Feb-17 15:32N 25°47' W 080°10'0 0.0
2017-Feb-17 14:29N 25°47' W 080°10'0 0.0
2017-Feb-17 13:29N 25°47' W 080°10'0 0.0
2017-Feb-17 12:32N 25°47' W 080°10'0 0.0
2017-Feb-17 11:32N 25°47' W 080°10'4 4.0
2017-Feb-17 10:33N 25°46' W 080°06'1010.0
2017-Feb-17 09:33N 25°42' W 079°56'1313.4
2017-Feb-17 08:34N 25°29' W 079°54'33016.1
2017-Feb-16 12:00N 22°24' W 084°54'2120.5 330 / 131015.610.8 25.022.227.5
2017-Feb-16 11:00N 22°12' W 085°12'12618.9 320 / 191014.810.8 25.022.227.5
2017-Feb-16 04:18N 20°44' W 086°50'1519.6
2017-Feb-16 03:33N 20°33' W 086°60'4 3.9
2017-Feb-16 02:30N 20°29' W 086°59'0 0.0
2017-Feb-16 01:33N 20°29' W 086°59'0 0.0
2017-Feb-16 00:33N 20°29' W 086°59'0 0.0
2017-Feb-15 23:33N 20°29' W 086°59'0 0.0
2017-Feb-15 22:31N 20°29' W 086°59'0 0.0
2017-Feb-15 21:31N 20°29' W 086°59'0 0.0
2017-Feb-15 20:31N 20°29' W 086°59'0 0.0
2017-Feb-15 19:31N 20°29' W 086°59'0 0.0
2017-Feb-15 18:28N 20°29' W 086°59'0 0.0
2017-Feb-15 17:28N 20°29' W 086°59'0 0.1
2017-Feb-15 16:33N 20°29' W 086°59'8 8.2
2017-Feb-15 15:33N 20°37' W 086°58'4115.9
2017-Feb-15 13:00N 20°54' W 086°18'   020 / 391012.810.8 26.024.627.0
Track history (hours):
 
Tides and Currents Weather Stations Pressure Air Temp Water Temp Dewpoint Dewpoint Depression Visibility Wind Speed Wind Dir Waves Ship Positions

Carnival Victory

Operator: Carnival Cruise Lines

Last reported at 2017-Feb-24 07:33 UTC. Time now 2017-Feb-24 08:21 UTC.
Position N 25°08' W 079°59'.

Type: Ship. MMSI: 355263000.

Date/timePositionNaut miles runAvg speedWind from/ knotsBaromVisibWave heightAir tempDewpointWater temp
2017-Feb-24 07:33N 25°08' W 079°59'7115.6
2017-Feb-24 03:00N 24°12' W 080°48'6315.6 290 / 351006.910.8 23.018.527.0
2017-Feb-23 23:00N 23°42' W 081°48'18817.1 340 / 251005.510.8 23.018.527.0
2017-Feb-23 12:00N 22°24' W 084°54'14818.9 310 / 281007.010.8 23.020.127.4
2017-Feb-23 04:09N 20°43' W 086°51'1119.4
2017-Feb-23 03:34N 20°34' W 086°58'5 5.0
2017-Feb-23 02:28N 20°29' W 086°59'0 0.0
2017-Feb-23 01:31N 20°29' W 086°59'0 0.0
2017-Feb-23 00:31N 20°29' W 086°59'0 0.0
2017-Feb-22 23:31N 20°29' W 086°59'0 0.0
2017-Feb-22 22:28N 20°29' W 086°59'0 0.0
2017-Feb-22 21:31N 20°29' W 086°59'0 0.0
2017-Feb-22 20:25N 20°29' W 086°59'0 0.0
2017-Feb-22 19:31N 20°29' W 086°59'0 0.0
2017-Feb-22 18:32N 20°29' W 086°59'0 0.0
2017-Feb-22 17:31N 20°29' W 086°59'1 0.6
2017-Feb-22 16:34N 20°29' W 086°59'7015.3
2017-Feb-22 12:00N 21°12' W 086°00'40812.4 130 / 321008.810.8 24.021.127.7
2017-Feb-21 03:11N 25°08' W 079°58'914.9
2017-Feb-21 02:33N 25°18' W 079°56'1515.2
2017-Feb-21 01:33N 25°33' W 079°54'1212.3
2017-Feb-21 00:33N 25°44' W 079°60'9 9.4
2017-Feb-20 23:33N 25°47' W 080°10'0 0.3
2017-Feb-20 22:31N 25°47' W 080°10'0 0.0
2017-Feb-20 21:32N 25°47' W 080°10'0 0.0
2017-Feb-20 20:31N 25°47' W 080°10'0 0.0
2017-Feb-20 19:25N 25°47' W 080°10'0 0.0
2017-Feb-20 18:28N 25°47' W 080°10'0 0.0
2017-Feb-20 17:31N 25°47' W 080°10'0 0.0
2017-Feb-20 16:28N 25°47' W 080°10'0 0.0
2017-Feb-20 15:28N 25°47' W 080°10'0 0.0
2017-Feb-20 14:31N 25°47' W 080°10'0 0.0
2017-Feb-20 13:31N 25°47' W 080°10'0 0.0
2017-Feb-20 12:31N 25°47' W 080°10'0 0.0
2017-Feb-20 11:31N 25°47' W 080°10'0 0.5
2017-Feb-20 10:33N 25°46' W 080°10'9 9.4
2017-Feb-20 09:33N 25°48' W 079°59'8 7.9
2017-Feb-20 08:33N 25°53' W 079°52'7 7.3
2017-Feb-20 07:33N 25°57' W 079°45'8 7.8
2017-Feb-20 06:33N 26°01' W 079°38'8 7.7
2017-Feb-20 05:33N 26°05' W 079°31'8 7.8
2017-Feb-20 04:33N 26°09' W 079°23'8 8.1
2017-Feb-20 03:33N 26°13' W 079°16'4 0.1
2017-Feb-18 04:28N 26°11' W 079°18'1314.4
2017-Feb-18 03:33N 26°05' W 079°31'1414.0
2017-Feb-18 02:33N 25°57' W 079°44'1414.3
2017-Feb-18 01:33N 25°49' W 079°57'1110.7
2017-Feb-18 00:33N 25°46' W 080°09'1 1.3
2017-Feb-17 23:32N 25°47' W 080°10'0 0.0
2017-Feb-17 22:32N 25°47' W 080°10'0 0.0
2017-Feb-17 21:32N 25°47' W 080°10'0 0.0
2017-Feb-17 20:32N 25°47' W 080°10'0 0.0
2017-Feb-17 19:32N 25°47' W 080°10'0 0.0
2017-Feb-17 18:26N 25°47' W 080°10'0 0.0
2017-Feb-17 17:29N 25°47' W 080°10'0 0.0
2017-Feb-17 16:29N 25°47' W 080°10'0 0.0
2017-Feb-17 15:32N 25°47' W 080°10'0 0.0
2017-Feb-17 14:29N 25°47' W 080°10'0 0.0
2017-Feb-17 13:29N 25°47' W 080°10'0 0.0
2017-Feb-17 12:32N 25°47' W 080°10'0 0.0
2017-Feb-17 11:32N 25°47' W 080°10'4 4.0
2017-Feb-17 10:33N 25°46' W 080°06'1010.0
2017-Feb-17 09:33N 25°42' W 079°56'1313.4
2017-Feb-17 08:34N 25°29' W 079°54'33016.1
2017-Feb-16 12:00N 22°24' W 084°54'2120.5 330 / 131015.610.8 25.022.227.5
2017-Feb-16 11:00N 22°12' W 085°12'12618.9 320 / 191014.810.8 25.022.227.5
2017-Feb-16 04:18N 20°44' W 086°50'1519.6
2017-Feb-16 03:33N 20°33' W 086°60'4 3.9
2017-Feb-16 02:30N 20°29' W 086°59'0 0.0
2017-Feb-16 01:33N 20°29' W 086°59'0 0.0
2017-Feb-16 00:33N 20°29' W 086°59'0 0.0
2017-Feb-15 23:33N 20°29' W 086°59'0 0.0
2017-Feb-15 22:31N 20°29' W 086°59'0 0.0
2017-Feb-15 21:31N 20°29' W 086°59'0 0.0
2017-Feb-15 20:31N 20°29' W 086°59'0 0.0
2017-Feb-15 19:31N 20°29' W 086°59'0 0.0
2017-Feb-15 18:28N 20°29' W 086°59'0 0.0
2017-Feb-15 17:28N 20°29' W 086°59'0 0.1
2017-Feb-15 16:33N 20°29' W 086°59'8 8.2
2017-Feb-15 15:33N 20°37' W 086°58'4115.9
2017-Feb-15 13:00N 20°54' W 086°18'   020 / 391012.810.8 26.024.627.0

Dump ship's entire track history